Time;durP1;ratioP1;P1;durP2;ratioP2;P2;SDS_P1;SDS_P2;PMS_P1;PMS_P2;Temp;Humidity;BMP_temperature;BMP_pressure;BME280_temperature;BME280_humidity;BME280_pressure;Samples;Min_cycle;Max_cycle;Signal;HPM_P1;HPM_P2
2022/08/19 00:01:57;;;;;;;11.23;5.70;;;;;;;;;;6210506;23;20024;-84
2022/08/19 00:04:36;;;;;;;8.10;6.32;;;;;;;;;;6241608;23;20039;-84
2022/08/19 00:07:03;;;;;;;6.80;6.20;;;;;;;;;;6185482;23;20055;-83
2022/08/19 00:09:29;;;;;;;7.78;6.95;;;;;;;;;;6187914;23;20070;-84
2022/08/19 00:12:05;;;;;;;10.55;6.95;;;;;;;;;;6187001;23;20428;-84
2022/08/19 00:14:31;;;;;;;13.48;8.70;;;;;;;;;;6186110;23;20028;-83
2022/08/19 00:17:02;;;;;;;16.42;8.82;;;;;;;;;;6211619;23;20027;-83
2022/08/19 00:19:29;;;;;;;13.27;6.90;;;;;;;;;;6209738;23;20055;-84
2022/08/19 00:22:04;;;;;;;8.98;7.30;;;;;;;;;;6212623;23;20027;-84
2022/08/19 00:24:31;;;;;;;14.02;7.50;;;;;;;;;;6236854;23;20361;-85
2022/08/19 00:29:54;;;;;;;9.85;6.63;;;;;;;;;;6141706;23;20168;-84
2022/08/19 00:32:20;;;;;;;10.35;7.63;;;;;;;;;;6146554;23;20022;-84
2022/08/19 00:34:55;;;;;;;11.48;9.70;;;;;;;;;;6144594;23;20032;-85
2022/08/19 00:37:22;;;;;;;10.85;8.68;;;;;;;;;;6097387;23;20465;-84
2022/08/19 00:39:58;;;;;;;12.80;9.77;;;;;;;;;;6120709;23;20454;-84
2022/08/19 00:42:30;;;;;;;10.80;9.70;;;;;;;;;;6095579;23;20021;-84
2022/08/19 00:45:14;;;;;;;10.63;9.52;;;;;;;;;;6121614;23;20021;-84
2022/08/19 00:47:46;;;;;;;16.88;10.18;;;;;;;;;;6143359;23;20022;-85
2022/08/19 00:50:14;;;;;;;12.02;10.68;;;;;;;;;;6147288;23;20156;-83
2022/08/19 00:52:50;;;;;;;15.85;10.68;;;;;;;;;;6143522;23;20318;-84
2022/08/19 00:55:33;;;;;;;14.75;9.30;;;;;;;;;;6121559;23;20025;-84
2022/08/19 01:01:04;;;;;;;13.75;9.60;;;;;;;;;;6145535;23;20409;-83
2022/08/19 01:03:58;;;;;;;12.77;9.40;;;;;;;;;;6096718;23;20033;-83
2022/08/19 01:06:25;;;;;;;11.90;10.27;;;;;;;;;;6147040;23;20342;-84
2022/08/19 01:09:00;;;;;;;12.75;9.73;;;;;;;;;;6211211;23;20134;-85
2022/08/19 01:11:34;;;;;;;12.90;10.15;;;;;;;;;;6210134;23;20024;-84
2022/08/19 01:14:04;;;;;;;10.85;9.48;;;;;;;;;;6210498;23;20078;-84
2022/08/19 01:16:32;;;;;;;13.77;9.90;;;;;;;;;;6209802;23;20477;-84
2022/08/19 01:18:58;;;;;;;12.30;9.52;;;;;;;;;;6209382;23;20032;-84
2022/08/19 01:21:54;;;;;;;15.85;11.25;;;;;;;;;;6184932;23;20020;-85
2022/08/19 01:24:21;;;;;;;13.25;9.43;;;;;;;;;;6182750;23;20021;-84
2022/08/19 01:26:50;;;;;;;18.88;10.73;;;;;;;;;;6211414;23;20020;-83
2022/08/19 01:33:05;;;;;;;14.82;11.07;;;;;;;;;;6221116;23;20036;-83
2022/08/19 01:36:06;;;;;;;16.00;10.90;;;;;;;;;;6124475;23;20068;-84
2022/08/19 01:38:36;;;;;;;15.68;11.45;;;;;;;;;;6147925;23;20052;-84
2022/08/19 01:41:08;;;;;;;13.27;10.27;;;;;;;;;;6146662;23;20564;-84
2022/08/19 01:43:35;;;;;;;12.57;9.93;;;;;;;;;;6088167;23;20093;-84
2022/08/19 01:46:13;;;;;;;18.33;10.65;;;;;;;;;;6089087;23;20056;-84
2022/08/19 01:48:40;;;;;;;42.75;8.30;;;;;;;;;;6064979;23;20101;-84
2022/08/19 01:51:07;;;;;;;82.68;11.63;;;;;;;;;;6063141;23;20069;-84
2022/08/19 01:53:50;;;;;;;145.95;10.75;;;;;;;;;;6088994;23;20339;-83
2022/08/19 01:56:22;;;;;;;28.48;6.80;;;;;;;;;;6063840;23;20022;-83
2022/08/19 01:59:01;;;;;;;20.15;5.57;;;;;;;;;;6089972;23;20022;-83
2022/08/19 02:01:31;;;;;;;8.20;5.55;;;;;;;;;;6087785;23;20374;-85
2022/08/19 02:04:10;;;;;;;6.18;5.55;;;;;;;;;;6040781;23;20428;-84
2022/08/19 02:06:36;;;;;;;5.70;4.28;;;;;;;;;;6112224;23;20013;-85
2022/08/19 02:09:09;;;;;;;5.03;4.53;;;;;;;;;;6151484;23;20706;-85
2022/08/19 02:11:37;;;;;;;5.75;5.20;;;;;;;;;;6152553;23;20059;-84
2022/08/19 02:14:05;;;;;;;5.68;5.07;;;;;;;;;;6126303;23;20028;-84
2022/08/19 02:16:38;;;;;;;8.52;5.63;;;;;;;;;;6176664;23;20374;-84
2022/08/19 02:19:04;;;;;;;7.57;5.60;;;;;;;;;;6176010;23;20043;-84
2022/08/19 02:21:34;;;;;;;8.02;7.22;;;;;;;;;;6226231;23;20027;-84
2022/08/19 02:24:12;;;;;;;11.23;9.95;;;;;;;;;;6239218;23;20023;-84
2022/08/19 02:26:47;;;;;;;11.27;10.07;;;;;;;;;;6241028;23;20024;-85
2022/08/19 02:29:13;;;;;;;15.25;11.00;;;;;;;;;;6186147;23;20680;-84
2022/08/19 02:31:51;;;;;;;16.13;11.95;;;;;;;;;;6239764;23;20074;-84
2022/08/19 02:34:29;;;;;;;14.60;11.88;;;;;;;;;;6239762;23;20051;-84
2022/08/19 02:40:24;;;;;;;12.32;10.95;;;;;;;;;;6218703;23;20027;-83
2022/08/19 02:43:20;;;;;;;12.65;11.02;;;;;;;;;;6218105;23;20046;-84
2022/08/19 02:45:48;;;;;;;14.88;11.80;;;;;;;;;;6247393;23;20035;-84
2022/08/19 02:48:19;;;;;;;13.20;10.85;;;;;;;;;;6225359;23;20016;-83
2022/08/19 02:50:56;;;;;;;15.60;11.35;;;;;;;;;;6226223;23;20050;-84
2022/08/19 02:53:27;;;;;;;13.95;10.75;;;;;;;;;;6246525;23;20020;-84
2022/08/19 02:55:53;;;;;;;13.27;11.10;;;;;;;;;;6214057;23;20028;-84
2022/08/19 02:58:21;;;;;;;14.00;10.13;;;;;;;;;;6211033;23;20065;-84
2022/08/19 03:00:50;;;;;;;15.07;9.95;;;;;;;;;;6189325;23;20024;-83
2022/08/19 03:03:16;;;;;;;12.75;9.55;;;;;;;;;;6236866;23;20016;-84
2022/08/19 03:05:48;;;;;;;10.68;9.65;;;;;;;;;;6187351;23;20473;-84
2022/08/19 03:08:21;;;;;;;13.50;10.77;;;;;;;;;;6236578;23;20043;-85
2022/08/19 03:10:53;;;;;;;13.32;9.98;;;;;;;;;;6211308;23;20128;-84
2022/08/19 03:13:21;;;;;;;13.25;10.07;;;;;;;;;;6210651;23;20026;-83
2022/08/19 03:15:48;;;;;;;13.48;9.65;;;;;;;;;;6211495;23;20024;-84
2022/08/19 03:18:14;;;;;;;11.73;8.60;;;;;;;;;;6236666;23;20086;-84
2022/08/19 03:20:42;;;;;;;12.00;9.05;;;;;;;;;;6212198;23;20027;-83
2022/08/19 03:23:08;;;;;;;11.73;8.15;;;;;;;;;;6208989;23;20051;-83
2022/08/19 03:25:44;;;;;;;10.90;8.00;;;;;;;;;;6212777;23;20078;-85
2022/08/19 03:28:11;;;;;;;9.10;8.20;;;;;;;;;;6236150;23;20055;-84
2022/08/19 03:30:39;;;;;;;10.98;8.30;;;;;;;;;;6235799;23;20016;-84
2022/08/19 03:33:12;;;;;;;8.95;8.05;;;;;;;;;;6209681;23;20023;-83
2022/08/19 03:35:38;;;;;;;9.10;8.10;;;;;;;;;;6236809;23;20028;-84
2022/08/19 03:38:13;;;;;;;12.27;9.07;;;;;;;;;;6208520;23;20067;-85
2022/08/19 03:40:39;;;;;;;9.70;8.32;;;;;;;;;;6184105;23;20027;-83
2022/08/19 03:43:18;;;;;;;10.55;8.80;;;;;;;;;;6209746;23;20024;-84
2022/08/19 03:45:44;;;;;;;11.88;7.68;;;;;;;;;;6236182;23;20012;-83
2022/08/19 03:48:10;;;;;;;9.38;8.18;;;;;;;;;;6185954;23;20162;-83
2022/08/19 03:50:45;;;;;;;10.25;8.80;;;;;;;;;;6234963;23;20016;-84
2022/08/19 03:53:11;;;;;;;11.10;9.07;;;;;;;;;;6237992;23;20035;-83
2022/08/19 03:55:41;;;;;;;9.80;8.50;;;;;;;;;;6236456;23;20409;-83
2022/08/19 03:58:19;;;;;;;12.95;9.02;;;;;;;;;;6210818;23;20063;-84
2022/08/19 04:00:46;;;;;;;12.05;8.85;;;;;;;;;;6234226;23;20023;-84
2022/08/19 04:03:15;;;;;;;15.38;8.57;;;;;;;;;;6210059;23;20027;-84
2022/08/19 04:05:47;;;;;;;14.25;7.18;;;;;;;;;;6208081;23;20520;-85
2022/08/19 04:08:15;;;;;;;9.77;6.60;;;;;;;;;;6236346;23;20059;-83
2022/08/19 04:10:41;;;;;;;8.27;7.00;;;;;;;;;;6236200;23;20059;-83
2022/08/19 04:15:41;;;;;;;8.77;6.40;;;;;;;;;;6237075;23;20070;-84
2022/08/19 04:18:08;;;;;;;10.98;7.50;;;;;;;;;;6235937;23;20028;-84
2022/08/19 04:20:39;;;;;;;13.13;7.82;;;;;;;;;;6238408;23;20020;-84
2022/08/19 04:23:12;;;;;;;12.43;8.55;;;;;;;;;;6237233;23;20086;-84
2022/08/19 04:25:39;;;;;;;10.57;8.18;;;;;;;;;;6210494;23;20023;-84
2022/08/19 04:28:15;;;;;;;12.85;9.82;;;;;;;;;;6235585;23;20066;-83
2022/08/19 04:31:27;;;;;;;12.43;9.85;;;;;;;;;;6237390;23;20067;-83
2022/08/19 04:34:01;;;;;;;15.23;11.75;;;;;;;;;;6072232;23;20033;-83
2022/08/19 04:36:37;;;;;;;20.50;11.20;;;;;;;;;;6237133;23;20023;-83
2022/08/19 04:39:11;;;;;;;12.38;10.80;;;;;;;;;;6208984;23;20414;-84
2022/08/19 04:45:11;;;;;;;23.60;10.65;;;;;;;;;;6184967;23;20024;-85
2022/08/19 04:47:39;;;;;;;12.67;9.07;;;;;;;;;;6184326;23;20349;-83
2022/08/19 04:50:11;;;;;;;22.58;8.63;;;;;;;;;;6212469;23;20059;-83
2022/08/19 04:52:42;;;;;;;17.20;7.80;;;;;;;;;;6236693;23;20020;-83
2022/08/19 04:55:09;;;;;;;11.93;8.27;;;;;;;;;;6166387;23;20098;-82
2022/08/19 04:57:41;;;;;;;12.68;7.93;;;;;;;;;;6210649;23;20052;-84
2022/08/19 05:00:17;;;;;;;10.32;8.13;;;;;;;;;;6186682;23;20130;-84
2022/08/19 05:02:43;;;;;;;9.90;7.43;;;;;;;;;;6236481;23;20020;-83
2022/08/19 05:05:09;;;;;;;13.00;8.25;;;;;;;;;;6213290;23;20400;-83
2022/08/19 05:07:48;;;;;;;9.90;7.90;;;;;;;;;;6235613;23;20024;-84
2022/08/19 05:10:14;;;;;;;10.80;8.63;;;;;;;;;;6212495;23;20091;-83
2022/08/19 05:12:40;;;;;;;9.73;8.73;;;;;;;;;;6209967;23;20078;-83
2022/08/19 05:15:19;;;;;;;12.27;9.57;;;;;;;;;;6237633;23;20016;-84
2022/08/19 05:22:31;;;;;;;11.75;10.40;;;;;;;;;;6209547;23;20379;-83
2022/08/19 05:23:23;;;;;;;26.30;11.70;;;;;;;;;;6190185;23;20028;-83
2022/08/19 05:25:50;;;;;;;16.58;12.20;;;;;;;;;;6241772;23;20020;-79
2022/08/19 05:28:16;;;;;;;22.23;13.07;;;;;;;;;;6237728;23;20094;-83
2022/08/19 05:30:44;;;;;;;14.10;11.02;;;;;;;;;;6240315;23;20027;-80
2022/08/19 05:33:11;;;;;;;15.63;11.00;;;;;;;;;;6210948;23;20043;-85
2022/08/19 05:35:44;;;;;;;14.00;11.13;;;;;;;;;;6214116;23;20074;-81
2022/08/19 05:38:10;;;;;;;17.45;12.07;;;;;;;;;;6238378;23;20103;-81
2022/08/19 05:40:49;;;;;;;15.10;11.27;;;;;;;;;;6211877;23;20783;-79
2022/08/19 05:43:18;;;;;;;17.48;12.18;;;;;;;;;;6186509;23;20024;-81
2022/08/19 05:45:47;;;;;;;17.10;13.02;;;;;;;;;;6240564;23;20020;-80
2022/08/19 05:51:23;;;;;;;21.10;13.02;;;;;;;;;;6240546;22;20047;-81
2022/08/19 05:53:49;;;;;;;17.55;12.93;;;;;;;;;;6242956;23;20028;-82
2022/08/19 05:56:17;;;;;;;21.35;14.13;;;;;;;;;;6249127;23;20567;-83
2022/08/19 05:58:45;;;;;;;21.15;14.52;;;;;;;;;;6256153;23;20000;-84
2022/08/19 06:01:16;;;;;;;20.27;14.43;;;;;;;;;;6257333;23;20016;-81
2022/08/19 06:04:01;;;;;;;21.27;13.43;;;;;;;;;;6229662;23;20024;-81
2022/08/19 06:06:27;;;;;;;19.98;14.57;;;;;;;;;;6217240;23;20020;-81
2022/08/19 06:08:53;;;;;;;21.52;15.60;;;;;;;;;;6243418;23;20075;-80
2022/08/19 06:11:22;;;;;;;20.30;13.95;;;;;;;;;;6214847;23;20020;-82
2022/08/19 06:13:56;;;;;;;21.35;15.48;;;;;;;;;;6242288;23;20108;-81
2022/08/19 06:16:22;;;;;;;;;;;;;;;;;;6214414;23;20020;-85
2022/08/19 06:18:56;;;;;;;20.38;13.95;;;;;;;;;;6243925;22;19916;-82
2022/08/19 06:21:28;;;;;;;20.00;13.52;;;;;;;;;;6213642;23;20310;-82
2022/08/19 06:27:06;;;;;;;21.45;14.13;;;;;;;;;;6237596;23;20371;-82
2022/08/19 06:29:33;;;;;;;16.90;12.82;;;;;;;;;;6163624;23;20054;-83
2022/08/19 06:32:00;;;;;;;14.60;11.88;;;;;;;;;;6235705;23;20028;-81
2022/08/19 06:35:01;;;;;;;16.30;12.60;;;;;;;;;;6212501;23;20445;-79
2022/08/19 06:37:27;;;;;;;15.80;11.75;;;;;;;;;;6238997;23;20020;-82
2022/08/19 06:39:53;;;;;;;16.17;11.63;;;;;;;;;;6185106;23;20305;-82
2022/08/19 06:42:19;;;;;;;15.85;12.50;;;;;;;;;;6236645;23;20095;-81
2022/08/19 06:44:48;;;;;;;14.00;11.63;;;;;;;;;;6234827;23;20008;-80
2022/08/19 06:47:16;;;;;;;14.40;11.52;;;;;;;;;;6235577;22;20066;-78
2022/08/19 06:49:42;;;;;;;15.70;12.18;;;;;;;;;;6238143;23;20369;-81
2022/08/19 06:52:11;;;;;;;15.45;11.55;;;;;;;;;;6238101;23;20027;-81
2022/08/19 06:54:51;;;;;;;14.15;11.02;;;;;;;;;;6238284;23;20037;-83
2022/08/19 06:57:17;;;;;;;16.65;11.68;;;;;;;;;;6239389;23;20111;-82
2022/08/19 06:59:43;;;;;;;16.90;11.68;;;;;;;;;;6240165;23;20031;-83
2022/08/19 07:02:25;;;;;;;16.48;12.77;;;;;;;;;;6241227;23;20473;-79
2022/08/19 07:05:10;;;;;;;16.00;13.30;;;;;;;;;;6214948;23;20020;-79
2022/08/19 07:07:36;;;;;;;21.00;13.27;;;;;;;;;;6239044;23;20027;-79
2022/08/19 07:10:03;;;;;;;17.75;12.88;;;;;;;;;;6236318;23;20020;-80
2022/08/19 07:12:49;;;;;;;17.70;13.60;;;;;;;;;;6238787;23;20016;-80
2022/08/19 07:15:21;;;;;;;18.35;13.82;;;;;;;;;;6242057;23;20020;-87
2022/08/19 07:17:47;;;;;;;15.95;13.80;;;;;;;;;;6243234;23;20055;-84
2022/08/19 07:20:14;;;;;;;18.00;14.23;;;;;;;;;;6217238;23;20027;-82
2022/08/19 07:22:40;;;;;;;16.92;14.52;;;;;;;;;;6245941;22;20042;-83
2022/08/19 07:25:07;;;;;;;17.67;13.95;;;;;;;;;;6244815;23;20402;-85
2022/08/19 07:27:40;;;;;;;19.50;14.50;;;;;;;;;;6245213;23;20020;-88
2022/08/19 07:30:11;;;;;;;21.55;14.30;;;;;;;;;;6217284;23;20106;-88
2022/08/19 07:32:37;;;;;;;17.77;14.60;;;;;;;;;;6246308;23;20048;-84
2022/08/19 07:35:10;;;;;;;17.42;14.85;;;;;;;;;;6242456;23;20024;-86
2022/08/19 07:37:38;;;;;;;21.42;14.38;;;;;;;;;;6240512;23;20456;-82
2022/08/19 07:40:13;;;;;;;15.43;13.75;;;;;;;;;;6213525;23;20077;-81
2022/08/19 07:42:40;;;;;;;14.88;13.35;;;;;;;;;;6238862;23;20066;-82
2022/08/19 07:45:07;;;;;;;16.63;13.57;;;;;;;;;;6239149;23;20025;-81
2022/08/19 07:47:33;;;;;;;16.40;13.35;;;;;;;;;;6237219;23;20027;-81
2022/08/19 07:49:59;;;;;;;21.42;13.13;;;;;;;;;;6242133;23;20099;-83
2022/08/19 07:52:25;;;;;;;27.92;13.68;;;;;;;;;;6238804;23;20047;-81
2022/08/19 07:54:51;;;;;;;20.52;13.68;;;;;;;;;;6239228;23;20016;-81
2022/08/19 07:57:18;;;;;;;16.83;12.10;;;;;;;;;;6238740;23;20052;-81
2022/08/19 07:59:47;;;;;;;14.15;10.93;;;;;;;;;;6239165;23;20016;-87
2022/08/19 08:02:20;;;;;;;14.60;11.75;;;;;;;;;;6167221;23;20023;-84
2022/08/19 08:10:17;;;;;;;14.98;10.93;;;;;;;;;;6237694;23;20042;-80
2022/08/19 08:12:43;;;;;;;12.55;11.07;;;;;;;;;;6239173;23;20083;-78
2022/08/19 08:15:15;;;;;;;11.63;10.18;;;;;;;;;;6237406;23;20392;-81
2022/08/19 08:17:42;;;;;;;13.57;9.63;;;;;;;;;;6240306;23;20055;-81
2022/08/19 08:20:08;;;;;;;10.85;9.50;;;;;;;;;;6187845;23;20129;-80
2022/08/19 08:25:21;;;;;;;24.85;9.63;;;;;;;;;;6239115;23;20023;-80
2022/08/19 08:27:47;;;;;;;14.73;10.48;;;;;;;;;;6211394;23;20441;-81
2022/08/19 08:30:17;;;;;;;31.38;13.55;;;;;;;;;;6239102;23;20023;-81
2022/08/19 08:32:43;;;;;;;13.60;9.77;;;;;;;;;;6237470;23;21004;-81
2022/08/19 08:35:23;;;;;;;14.70;10.20;;;;;;;;;;6239137;23;20069;-82
2022/08/19 08:37:51;;;;;;;11.95;10.43;;;;;;;;;;6238543;23;20483;-82
2022/08/19 08:40:28;;;;;;;13.68;10.13;;;;;;;;;;6239739;23;20138;-81
2022/08/19 08:43:10;;;;;;;12.43;9.35;;;;;;;;;;6237404;23;20074;-81
2022/08/19 08:45:43;;;;;;;13.25;8.82;;;;;;;;;;6238873;23;20075;-81
2022/08/19 08:48:17;;;;;;;8.65;7.70;;;;;;;;;;6238513;23;20020;-81
2022/08/19 08:50:55;;;;;;;10.27;8.63;;;;;;;;;;6238490;23;20519;-83
2022/08/19 08:53:33;;;;;;;9.75;8.75;;;;;;;;;;6241245;23;20138;-83
2022/08/19 08:56:02;;;;;;;12.57;9.48;;;;;;;;;;6239178;23;20095;-82
2022/08/19 08:59:00;;;;;;;15.48;10.18;;;;;;;;;;6208900;23;20027;-81
2022/08/19 09:01:26;;;;;;;11.27;9.98;;;;;;;;;;6186176;23;20028;-82
2022/08/19 09:04:05;;;;;;;12.30;10.93;;;;;;;;;;6189665;23;20020;-82
2022/08/19 09:06:49;;;;;;;19.83;10.65;;;;;;;;;;6249331;23;20023;-82
2022/08/19 09:09:18;;;;;;;14.90;12.00;;;;;;;;;;6253942;23;20341;-82
2022/08/19 09:12:19;;;;;;;13.02;11.52;;;;;;;;;;6258657;23;20031;-83
2022/08/19 09:14:50;;;;;;;12.98;10.52;;;;;;;;;;6253015;23;20252;-82
2022/08/19 09:17:17;;;;;;;13.57;10.45;;;;;;;;;;6245570;23;20028;-82
2022/08/19 09:20:07;;;;;;;14.38;9.68;;;;;;;;;;6212764;23;20051;-82
2022/08/19 09:22:34;;;;;;;11.10;8.23;;;;;;;;;;6243121;22;20073;-84
2022/08/19 09:25:04;;;;;;;10.68;9.13;;;;;;;;;;6239369;23;20016;-84
2022/08/19 09:27:31;;;;;;;10.90;8.40;;;;;;;;;;6242718;23;20039;-85
2022/08/19 09:29:58;;;;;;;8.10;7.20;;;;;;;;;;6190063;23;20090;-85
2022/08/19 09:32:25;;;;;;;8.38;7.50;;;;;;;;;;6192082;23;20529;-84
2022/08/19 09:34:54;;;;;;;19.17;10.00;;;;;;;;;;6215997;23;20039;-85
2022/08/19 09:37:21;;;;;;;10.93;7.32;;;;;;;;;;6191308;23;20483;-86
2022/08/19 09:39:47;;;;;;;9.88;8.02;;;;;;;;;;6166385;23;20016;-84
2022/08/19 09:42:14;;;;;;;11.27;7.97;;;;;;;;;;6189220;23;20035;-84
2022/08/19 09:44:43;;;;;;;9.00;6.65;;;;;;;;;;6241908;23;20016;-84
2022/08/19 09:49:58;;;;;;;7.53;4.13;;;;;;;;;;6240964;23;20410;-85
2022/08/19 09:52:24;;;;;;;9.35;5.00;;;;;;;;;;6240033;23;20020;-85
2022/08/19 09:54:53;;;;;;;5.75;4.88;;;;;;;;;;6216118;23;20020;-84
2022/08/19 09:57:19;;;;;;;7.72;6.05;;;;;;;;;;6216086;23;20016;-85
2022/08/19 09:59:45;;;;;;;5.70;4.93;;;;;;;;;;6242221;23;20330;-86
2022/08/19 10:02:11;;;;;;;7.13;5.22;;;;;;;;;;6199964;23;20051;-88
2022/08/19 10:07:22;;;;;;;7.50;5.43;;;;;;;;;;6252267;23;20460;-86
2022/08/19 10:09:48;;;;;;;7.07;6.00;;;;;;;;;;6195974;23;20344;-90
2022/08/19 10:12:15;;;;;;;10.40;6.18;;;;;;;;;;6250149;23;20012;-88
2022/08/19 10:14:42;;;;;;;6.88;5.75;;;;;;;;;;6224191;23;20464;-90
2022/08/19 10:17:08;;;;;;;4.75;4.28;;;;;;;;;;6221616;23;20024;-85
2022/08/19 10:19:35;;;;;;;6.05;4.72;;;;;;;;;;6244201;23;20016;-84
2022/08/19 10:22:07;;;;;;;5.05;4.18;;;;;;;;;;6243598;23;20390;-86
2022/08/19 10:24:34;;;;;;;5.78;3.60;;;;;;;;;;6199265;23;20177;-87
2022/08/19 10:27:05;;;;;;;5.30;3.80;;;;;;;;;;6248574;23;20151;-86
2022/08/19 10:29:34;;;;;;;3.75;3.28;;;;;;;;;;6223359;23;20028;-85
2022/08/19 10:32:05;;;;;;;4.38;3.67;;;;;;;;;;6248014;23;20020;-86
2022/08/19 10:34:31;;;;;;;17.38;3.70;;;;;;;;;;6241904;23;20016;-84
2022/08/19 10:36:59;;;;;;;6.07;3.60;;;;;;;;;;6214826;23;20016;-84
2022/08/19 10:39:26;;;;;;;3.80;3.50;;;;;;;;;;6244259;23;20426;-86
2022/08/19 10:41:52;;;;;;;5.45;3.33;;;;;;;;;;6249583;23;20016;-86
2022/08/19 10:44:19;;;;;;;4.35;3.40;;;;;;;;;;6245177;23;20024;-83
2022/08/19 10:46:54;;;;;;;6.90;4.75;;;;;;;;;;6194100;23;20024;-89
2022/08/19 10:49:21;;;;;;;4.90;4.13;;;;;;;;;;6245041;23;20051;-86
2022/08/19 10:57:18;;;;;;;4.65;4.25;;;;;;;;;;6217738;23;20043;-87
2022/08/19 10:59:44;;;;;;;6.60;4.90;;;;;;;;;;6219745;23;20115;-85
2022/08/19 11:02:11;;;;;;;7.60;5.18;;;;;;;;;;6217137;23;20024;-89
2022/08/19 11:04:38;;;;;;;5.95;5.40;;;;;;;;;;6217960;23;20016;-84
2022/08/19 11:07:05;;;;;;;6.70;6.00;;;;;;;;;;6244247;23;20016;-87
2022/08/19 11:09:31;;;;;;;5.50;5.00;;;;;;;;;;6196065;23;20551;-89
2022/08/19 11:11:57;;;;;;;6.13;5.47;;;;;;;;;;6242523;23;20044;-89
2022/08/19 11:14:25;;;;;;;8.70;5.40;;;;;;;;;;6221019;23;20086;-86
2022/08/19 11:16:55;;;;;;;6.63;5.50;;;;;;;;;;6170237;23;20020;-83
2022/08/19 11:19:23;;;;;;;5.75;4.88;;;;;;;;;;6246427;23;20453;-85
2022/08/19 11:21:55;;;;;;;7.65;6.85;;;;;;;;;;6195313;23;20157;-84
2022/08/19 11:24:38;;;;;;;7.55;6.75;;;;;;;;;;6217910;23;20028;-87
2022/08/19 11:27:07;;;;;;;7.63;6.82;;;;;;;;;;6246393;23;20038;-85
2022/08/19 11:29:34;;;;;;;8.45;7.57;;;;;;;;;;6216807;23;20044;-86
2022/08/19 11:32:08;;;;;;;7.82;7.03;;;;;;;;;;6246057;23;20345;-84
2022/08/19 11:34:35;;;;;;;9.52;7.35;;;;;;;;;;6245095;23;20032;-85
2022/08/19 11:37:01;;;;;;;10.18;6.82;;;;;;;;;;6219452;23;20016;-87
2022/08/19 11:39:29;;;;;;;9.07;7.25;;;;;;;;;;6219095;23;20043;-86
2022/08/19 11:41:56;;;;;;;9.40;8.27;;;;;;;;;;6217155;23;20095;-86
2022/08/19 11:44:22;;;;;;;7.57;6.78;;;;;;;;;;6218452;23;20016;-87
2022/08/19 11:46:48;;;;;;;7.40;6.72;;;;;;;;;;6214624;23;20051;-87
2022/08/19 11:49:16;;;;;;;8.98;7.28;;;;;;;;;;6219156;23;20020;-87
2022/08/19 11:51:43;;;;;;;9.45;6.63;;;;;;;;;;6243483;23;20012;-88
2022/08/19 11:54:09;;;;;;;7.53;5.93;;;;;;;;;;6249753;23;20036;-84
2022/08/19 11:56:37;;;;;;;8.52;7.30;;;;;;;;;;6246282;23;20016;-85
2022/08/19 11:59:03;;;;;;;8.63;6.40;;;;;;;;;;6194638;23;20464;-84
2022/08/19 12:01:29;;;;;;;8.35;7.55;;;;;;;;;;6219981;23;20095;-86
2022/08/19 12:03:56;;;;;;;9.65;6.88;;;;;;;;;;6217997;23;20074;-85
2022/08/19 12:06:25;;;;;;;8.93;8.00;;;;;;;;;;6215236;23;20024;-85
2022/08/19 12:08:51;;;;;;;8.93;6.40;;;;;;;;;;6240504;23;20478;-87
2022/08/19 12:11:28;;;;;;;9.05;7.43;;;;;;;;;;6216161;23;20016;-85
2022/08/19 12:13:54;;;;;;;9.95;8.98;;;;;;;;;;6214187;23;20094;-85
2022/08/19 12:16:22;;;;;;;8.90;6.80;;;;;;;;;;6242125;23;20016;-84
2022/08/19 12:18:50;;;;;;;7.28;6.55;;;;;;;;;;6213577;23;20483;-84
2022/08/19 12:21:17;;;;;;;8.05;6.18;;;;;;;;;;6217166;23;20024;-85
2022/08/19 12:23:45;;;;;;;7.10;5.68;;;;;;;;;;6243896;23;20013;-85
2022/08/19 12:26:11;;;;;;;7.65;6.28;;;;;;;;;;6224415;23;20094;-83
2022/08/19 12:28:38;;;;;;;8.13;6.32;;;;;;;;;;6250993;23;20024;-86
2022/08/19 12:31:05;;;;;;;8.38;6.65;;;;;;;;;;6224656;23;20035;-90
2022/08/19 12:33:31;;;;;;;7.95;6.53;;;;;;;;;;6221499;23;20060;-90
2022/08/19 12:36:19;;;;;;;7.53;6.70;;;;;;;;;;6197150;23;20487;-91
2022/08/19 12:38:46;;;;;;;8.77;7.20;;;;;;;;;;6195649;23;20031;-87
2022/08/19 12:41:14;;;;;;;7.40;6.53;;;;;;;;;;6196478;23;20138;-90
2022/08/19 12:43:50;;;;;;;9.10;7.55;;;;;;;;;;6195858;23;20096;-85
2022/08/19 12:46:19;;;;;;;8.95;8.10;;;;;;;;;;6221758;23;20052;-87
2022/08/19 12:48:45;;;;;;;11.93;8.85;;;;;;;;;;6221670;23;20028;-89
2022/08/19 12:51:13;;;;;;;10.30;8.88;;;;;;;;;;6172413;23;20017;-81
2022/08/19 12:53:40;;;;;;;9.68;8.75;;;;;;;;;;6218995;23;20040;-80
2022/08/19 12:56:06;;;;;;;9.88;8.77;;;;;;;;;;6218013;23;20017;-90
2022/08/19 12:58:34;;;;;;;9.95;8.02;;;;;;;;;;6170692;23;20040;-91
2022/08/19 13:01:04;;;;;;;16.23;8.65;;;;;;;;;;6221408;23;20012;-91
2022/08/19 13:03:32;;;;;;;13.45;9.75;;;;;;;;;;6221157;23;20027;-91
2022/08/19 13:06:01;;;;;;;12.85;8.35;;;;;;;;;;6196589;23;20555;-94
2022/08/19 13:08:27;;;;;;;10.23;7.88;;;;;;;;;;6144926;23;20028;-93
2022/08/19 13:10:53;;;;;;;8.02;7.32;;;;;;;;;;6165693;23;20020;-82
2022/08/19 13:13:19;;;;;;;11.30;8.18;;;;;;;;;;6222541;23;20024;-92
2022/08/19 13:15:45;;;;;;;8.43;7.53;;;;;;;;;;6197556;23;20088;-94
2022/08/19 13:18:12;;;;;;;10.40;7.47;;;;;;;;;;6192719;23;20028;-84
2022/08/19 13:20:43;;;;;;;9.23;6.63;;;;;;;;;;6217274;23;20055;-83
2022/08/19 13:23:38;;;;;;;12.38;6.18;;;;;;;;;;6221294;23;20020;-88
2022/08/19 13:26:17;;;;;;;8.90;6.80;;;;;;;;;;6222921;23;20052;-90
2022/08/19 13:34:16;;;;;;;7.85;6.82;;;;;;;;;;6192955;23;20028;-94
2022/08/19 13:36:42;;;;;;;10.48;6.95;;;;;;;;;;6218208;23;20349;-84
2022/08/19 13:39:09;;;;;;;10.68;7.65;;;;;;;;;;6215745;23;20044;-88
2022/08/19 13:41:47;;;;;;;8.25;7.35;;;;;;;;;;6187930;23;20020;-94
2022/08/19 13:44:13;;;;;;;9.40;7.13;;;;;;;;;;6192170;23;20072;-89
2022/08/19 13:46:40;;;;;;;10.63;7.30;;;;;;;;;;6163008;23;20028;-90
2022/08/19 13:49:09;;;;;;;9.05;7.50;;;;;;;;;;6165862;23;20079;-84
2022/08/19 13:51:44;;;;;;;10.68;7.57;;;;;;;;;;6213078;23;20052;-89
2022/08/19 13:54:26;;;;;;;8.95;7.72;;;;;;;;;;6187778;23;20055;-90
2022/08/19 13:56:53;;;;;;;19.92;15.55;;;;;;;;;;6186532;23;20048;-84
2022/08/19 13:59:19;;;;;;;21.75;14.30;;;;;;;;;;6187439;23;20020;-86
2022/08/19 14:01:45;;;;;;;17.90;13.05;;;;;;;;;;6183897;23;20029;-86
2022/08/19 14:04:11;;;;;;;14.05;11.65;;;;;;;;;;6188484;23;20099;-88
2022/08/19 14:06:46;;;;;;;15.80;11.30;;;;;;;;;;6161873;23;20021;-91
2022/08/19 14:09:16;;;;;;;17.15;12.60;;;;;;;;;;6164506;23;20259;-84
2022/08/19 14:11:45;;;;;;;21.95;18.67;;;;;;;;;;6185095;23;20048;-86
2022/08/19 14:14:11;;;;;;;21.42;19.20;;;;;;;;;;6212095;23;20021;-85
2022/08/19 14:19:37;;;;;;;22.08;19.67;;;;;;;;;;6241803;22;20028;-84
2022/08/19 14:22:04;;;;;;;22.38;18.13;;;;;;;;;;6168172;23;20016;-88
2022/08/19 14:24:35;;;;;;;23.02;19.15;;;;;;;;;;6223643;23;20084;-90
2022/08/19 14:27:03;;;;;;;22.83;19.30;;;;;;;;;;6238927;22;20086;-89
2022/08/19 14:29:29;;;;;;;22.17;19.88;;;;;;;;;;6244523;23;20095;-86
2022/08/19 14:31:58;;;;;;;26.00;19.95;;;;;;;;;;6245177;23;20107;-88
2022/08/19 14:34:25;;;;;;;24.27;21.42;;;;;;;;;;6188563;23;20491;-85
2022/08/19 14:37:09;;;;;;;23.55;20.95;;;;;;;;;;6246501;23;20020;-87
2022/08/19 14:39:39;;;;;;;22.20;19.80;;;;;;;;;;6258231;23;20036;-91
2022/08/19 14:42:20;;;;;;;22.00;19.70;;;;;;;;;;6254406;23;20049;-86
2022/08/19 14:44:50;;;;;;;20.35;16.52;;;;;;;;;;6257839;23;20047;-91
2022/08/19 14:47:16;;;;;;;21.48;16.52;;;;;;;;;;6227683;23;20333;-88
2022/08/19 14:49:43;;;;;;;20.52;16.38;;;;;;;;;;6196100;23;20461;-89
2022/08/19 14:52:19;;;;;;;20.52;14.80;;;;;;;;;;6251083;23;20016;-91
2022/08/19 14:55:37;;;;;;;22.00;15.80;;;24.80;99.90;;;;;;6247056;23;20457;-90
2022/08/19 14:58:22;;;;;;;19.50;14.20;;;;;;;;;;6195205;23;20068;-89
2022/08/19 15:00:48;;;;;;;18.67;14.38;;;;;;;;;;6196761;23;20020;-86
2022/08/19 15:03:15;;;;;;;21.17;13.55;;;;;;;;;;6246651;23;20108;-87
2022/08/19 15:06:21;;;;;;;21.27;14.13;;;;;;;;;;6247617;23;20829;-90
2022/08/19 15:08:50;;;;;;;20.13;14.60;;;;;;;;;;6219947;23;20051;-92
2022/08/19 15:11:17;;;;;;;23.52;13.70;;;;;;;;;;6250915;23;20020;-89
2022/08/19 15:13:55;;;;;;;16.40;12.00;;;;;;;;;;6217440;23;20023;-90
2022/08/19 15:16:24;;;;;;;22.80;13.02;;;;;;;;;;6249619;23;20020;-91
2022/08/19 15:18:51;;;;;;;23.52;12.60;;;;;;;;;;6219535;23;20020;-93
2022/08/19 15:21:18;;;;;;;16.73;12.20;;;;;;;;;;6249146;23;20016;-90
2022/08/19 15:23:44;;;;;;;17.67;11.93;;;;;;;;;;6249223;23;20025;-91
2022/08/19 15:26:11;;;;;;;16.67;11.43;;;;;;;;;;6222038;23;20020;-91
2022/08/19 15:28:37;;;;;;;17.98;11.68;;;;;;;;;;6193265;23;20457;-88
2022/08/19 15:31:13;;;;;;;24.85;12.13;;;;;;;;;;6195068;23;20016;-89
2022/08/19 15:33:43;;;;;;;16.50;12.05;;;;;;;;;;6220600;23;20031;-91
2022/08/19 15:36:11;;;;;;;23.20;13.82;;;;;;;;;;6246052;23;20050;-89
2022/08/19 15:38:56;;;;;;;19.38;12.65;;;;;;;;;;6248101;23;20020;-92
2022/08/19 15:41:24;;;;;;;19.95;11.05;;;;;;;;;;6193476;23;20105;-87
2022/08/19 15:43:51;;;;;;;15.90;13.05;;;;;;;;;;6220959;23;20075;-90
2022/08/19 15:46:18;;;;;;;15.98;10.27;;;;;;;;;;6244632;23;20016;-92